createdAt,value
2018-05-21T00:00:32.077Z,2.90
2018-05-21T00:01:31.975Z,3.50
2018-05-21T00:02:31.884Z,3.30
2018-05-21T00:03:31.781Z,3.30
2018-05-21T00:04:31.689Z,3.00
2018-05-21T00:05:31.585Z,2.90
2018-05-21T00:06:31.496Z,3.20
2018-05-21T00:07:31.392Z,3.10
2018-05-21T00:08:31.288Z,3.10
2018-05-21T00:09:31.197Z,3.10
2018-05-21T00:10:31.094Z,2.90
2018-05-21T00:11:31.004Z,2.90
2018-05-21T00:12:30.901Z,2.90
2018-05-21T00:13:30.798Z,3.20
2018-05-21T00:14:30.706Z,2.90
2018-05-21T00:15:30.602Z,2.80
2018-05-21T00:16:30.512Z,3.10
2018-05-21T00:17:30.410Z,3.10
2018-05-21T00:18:30.306Z,2.80
2018-05-21T00:19:30.214Z,2.80
2018-05-21T00:20:30.111Z,2.80
2018-05-21T00:21:30.022Z,3.00
2018-05-21T00:22:29.918Z,2.80
2018-05-21T00:23:29.814Z,3.40
2018-05-21T00:24:29.726Z,2.90
2018-05-21T00:25:29.620Z,2.90
2018-05-21T00:26:29.531Z,3.10
2018-05-21T00:27:29.427Z,2.50
2018-05-21T00:28:29.323Z,3.00
2018-05-21T00:29:29.244Z,3.00
2018-05-21T00:30:29.128Z,3.20
2018-05-21T00:31:29.043Z,3.10
2018-05-21T00:32:28.935Z,2.70
2018-05-21T00:33:28.832Z,2.70
2018-05-21T00:34:28.740Z,2.90
2018-05-21T00:35:28.640Z,2.80
2018-05-21T00:36:28.535Z,2.90
2018-05-21T00:37:28.443Z,3.10
2018-05-21T00:38:28.340Z,3.00
2018-05-21T00:39:28.251Z,3.30
2018-05-21T00:40:28.144Z,2.80
2018-05-21T00:41:28.043Z,2.90
2018-05-21T00:42:27.952Z,3.10
2018-05-21T00:43:27.849Z,3.20
2018-05-21T00:44:27.757Z,3.10
2018-05-21T00:45:27.653Z,2.80
2018-05-21T00:46:27.550Z,3.10
2018-05-21T00:47:27.460Z,3.40
2018-05-21T00:48:27.357Z,3.10
2018-05-21T00:49:27.265Z,3.00
2018-05-21T00:50:27.162Z,3.10
2018-05-21T00:51:27.058Z,2.90
2018-05-21T00:52:26.973Z,3.10
2018-05-21T00:53:26.865Z,3.20
2018-05-21T00:54:26.761Z,3.30
2018-05-21T00:55:26.670Z,2.80
2018-05-21T00:56:26.567Z,3.10
2018-05-21T00:57:26.776Z,3.00
2018-05-21T00:58:26.374Z,2.90
2018-05-21T00:59:26.271Z,3.10
2018-05-21T01:00:26.178Z,3.00
2018-05-21T01:01:26.075Z,3.70
2018-05-21T01:02:25.972Z,3.00
2018-05-21T01:03:25.881Z,3.00
2018-05-21T01:04:25.779Z,3.10
2018-05-21T01:05:25.687Z,3.10
2018-05-21T01:06:25.584Z,3.10
2018-05-21T01:07:25.789Z,3.20
2018-05-21T01:08:25.390Z,3.10
2018-05-21T01:09:25.294Z,3.20
2018-05-21T01:10:25.184Z,3.10
2018-05-21T01:11:25.095Z,3.30
2018-05-21T01:12:24.989Z,3.30
2018-05-21T01:13:24.886Z,2.90
2018-05-21T01:14:24.796Z,3.20
2018-05-21T01:15:24.693Z,3.10
2018-05-21T01:16:24.590Z,3.50
2018-05-21T01:17:24.497Z,3.20
2018-05-21T01:18:24.394Z,3.30
2018-05-21T01:19:24.303Z,3.30
2018-05-21T01:20:24.200Z,2.90
2018-05-21T01:21:24.097Z,2.80
2018-05-21T01:22:24.005Z,3.10
2018-05-21T01:23:23.901Z,3.60
2018-05-21T01:24:23.798Z,3.50
2018-05-21T01:25:23.712Z,3.60
2018-05-21T01:26:23.605Z,3.90
2018-05-21T01:27:23.502Z,3.30
2018-05-21T01:28:23.411Z,3.30
2018-05-21T01:29:23.320Z,3.40
2018-05-21T01:30:23.206Z,3.40
2018-05-21T01:31:23.114Z,3.40
2018-05-21T01:32:23.010Z,3.50
2018-05-21T01:33:22.919Z,3.30
2018-05-21T01:34:22.815Z,3.60
2018-05-21T01:35:22.712Z,3.50
2018-05-21T01:36:22.622Z,3.30
2018-05-21T01:37:22.518Z,3.70
2018-05-21T01:38:22.415Z,3.70
2018-05-21T01:39:22.324Z,3.80
2018-05-21T01:40:22.302Z,3.30
2018-05-21T01:41:22.117Z,3.20
2018-05-21T01:42:22.027Z,3.80
2018-05-21T01:43:21.924Z,3.40
2018-05-21T01:44:21.820Z,3.50
2018-05-21T01:45:21.729Z,3.30
2018-05-21T01:46:21.626Z,3.60
2018-05-21T01:47:21.523Z,3.60
2018-05-21T01:48:21.433Z,3.40
2018-05-21T01:49:21.328Z,3.70
2018-05-21T01:50:21.226Z,3.60
2018-05-21T01:51:21.137Z,3.80
2018-05-21T01:52:21.031Z,3.50
2018-05-21T01:53:20.929Z,3.10
2018-05-21T01:54:20.837Z,3.60
2018-05-21T01:55:20.741Z,3.50
2018-05-21T01:56:20.630Z,3.50
2018-05-21T01:57:20.543Z,3.60
2018-05-21T01:58:20.436Z,3.60
2018-05-21T01:59:20.334Z,3.30
2018-05-21T02:00:20.243Z,3.40
2018-05-21T02:01:20.140Z,3.70
2018-05-21T02:02:20.037Z,3.30
2018-05-21T02:03:19.944Z,3.30
2018-05-21T02:04:19.843Z,3.40
2018-05-21T02:05:19.739Z,3.30
2018-05-21T02:06:19.648Z,3.40
2018-05-21T02:07:19.545Z,3.60
2018-05-21T02:08:19.451Z,3.40
2018-05-21T02:09:19.350Z,3.20
2018-05-21T02:10:19.246Z,3.20
2018-05-21T02:11:19.144Z,3.10
2018-05-21T02:12:19.053Z,3.30
2018-05-21T02:13:18.951Z,3.10
2018-05-21T02:14:18.847Z,3.50
2018-05-21T02:15:18.756Z,3.80
2018-05-21T02:16:18.651Z,3.30
2018-05-21T02:17:18.562Z,3.10
2018-05-21T02:18:18.458Z,3.20
2018-05-21T02:19:18.355Z,3.20
2018-05-21T02:20:18.252Z,2.90
2018-05-21T02:21:18.159Z,3.50
2018-05-21T02:22:18.057Z,2.80
2018-05-21T02:23:17.953Z,3.10
2018-05-21T02:24:17.863Z,3.00
2018-05-21T02:25:17.760Z,3.30
2018-05-21T02:26:17.657Z,3.20
2018-05-21T02:27:17.815Z,3.00
2018-05-21T02:28:17.462Z,3.00
2018-05-21T02:29:17.359Z,3.30
2018-05-21T02:30:17.269Z,3.20
2018-05-21T02:31:17.165Z,3.10
2018-05-21T02:32:17.062Z,3.20
2018-05-21T02:33:16.970Z,3.20
2018-05-21T02:34:16.869Z,3.30
2018-05-21T02:35:16.764Z,3.50
2018-05-21T02:36:16.675Z,3.10
2018-05-21T02:37:16.570Z,3.40
2018-05-21T02:38:16.467Z,3.20
2018-05-21T02:39:16.375Z,3.10
2018-05-21T02:40:16.272Z,3.10
2018-05-21T02:41:16.173Z,3.40
2018-05-21T02:42:16.067Z,3.40
2018-05-21T02:43:15.976Z,3.80
2018-05-21T02:44:15.873Z,3.20
2018-05-21T02:45:15.771Z,3.20
2018-05-21T02:46:15.690Z,3.30
2018-05-21T02:47:15.576Z,3.20
2018-05-21T02:48:15.471Z,3.50
2018-05-21T02:49:15.380Z,3.10
2018-05-21T02:50:15.279Z,3.20
2018-05-21T02:51:15.179Z,3.50
2018-05-21T02:52:15.082Z,3.60
2018-05-21T02:53:14.981Z,3.40
2018-05-21T02:54:14.877Z,3.30
2018-05-21T02:55:14.785Z,3.30
2018-05-21T02:56:14.682Z,3.20
2018-05-21T02:57:14.579Z,3.00
2018-05-21T02:58:14.487Z,2.90
2018-05-21T02:59:14.383Z,3.20
2018-05-21T03:00:14.280Z,2.60
2018-05-21T03:01:14.190Z,2.70
2018-05-21T03:02:14.170Z,2.90
2018-05-21T03:03:13.985Z,2.90
2018-05-21T03:04:13.881Z,3.00
2018-05-21T03:05:13.789Z,2.90
2018-05-21T03:06:13.686Z,2.80
2018-05-21T03:07:13.583Z,3.50
2018-05-21T03:08:13.492Z,2.80
2018-05-21T03:09:13.389Z,3.00
2018-05-21T03:10:13.286Z,2.80
2018-05-21T03:11:13.194Z,3.10
2018-05-21T03:12:13.091Z,3.00
2018-05-21T03:13:12.987Z,2.90
2018-05-21T03:14:12.897Z,3.00
2018-05-21T03:15:12.794Z,3.10
2018-05-21T03:16:12.691Z,2.90
2018-05-21T03:17:12.849Z,3.10
2018-05-21T03:18:12.496Z,3.00
2018-05-21T03:19:12.392Z,2.80
2018-05-21T03:20:12.289Z,3.20
2018-05-21T03:21:12.198Z,2.90
2018-05-21T03:22:12.095Z,3.20
2018-05-21T03:23:11.992Z,2.90
2018-05-21T03:24:11.904Z,3.40
2018-05-21T03:25:11.797Z,3.10
2018-05-21T03:26:11.693Z,3.10
2018-05-21T03:27:11.610Z,2.60
2018-05-21T03:28:11.500Z,2.80
2018-05-21T03:29:11.398Z,2.90
2018-05-21T03:30:11.306Z,2.90
2018-05-21T03:31:11.204Z,2.90
2018-05-21T03:32:11.100Z,2.90
2018-05-21T03:33:10.998Z,3.00
2018-05-21T03:34:10.906Z,2.60
2018-05-21T03:35:10.810Z,2.60
2018-05-21T03:36:10.699Z,2.90
2018-05-21T03:37:10.609Z,2.90
2018-05-21T03:38:10.509Z,2.90
2018-05-21T03:39:10.402Z,2.90
2018-05-21T03:40:10.312Z,2.80
2018-05-21T03:41:10.208Z,2.80
2018-05-21T03:42:10.105Z,3.00
2018-05-21T03:43:10.044Z,3.10
2018-05-21T03:44:09.909Z,2.90
2018-05-21T03:45:09.806Z,2.80
2018-05-21T03:46:09.717Z,2.70
2018-05-21T03:47:09.614Z,2.90
2018-05-21T03:48:09.511Z,2.90
2018-05-21T03:49:09.417Z,2.90
2018-05-21T03:50:09.314Z,2.90
2018-05-21T03:51:09.211Z,3.00
2018-05-21T03:52:09.121Z,3.00
2018-05-21T03:53:09.018Z,2.90
2018-05-21T03:54:08.914Z,2.80
2018-05-21T03:55:08.824Z,3.10
2018-05-21T03:56:08.720Z,3.00
2018-05-21T03:57:08.918Z,2.80
2018-05-21T03:58:08.526Z,2.70
2018-05-21T03:59:08.423Z,2.90
2018-05-21T04:00:08.319Z,3.00
2018-05-21T04:01:08.229Z,3.00
2018-05-21T04:02:08.125Z,3.00
2018-05-21T04:03:08.035Z,3.00
2018-05-21T04:04:07.934Z,3.10
2018-05-21T04:05:07.828Z,2.90
2018-05-21T04:06:07.737Z,2.90
2018-05-21T04:07:07.633Z,2.80
2018-05-21T04:08:07.531Z,3.00
2018-05-21T04:09:07.440Z,2.80
2018-05-21T04:10:07.337Z,2.80
2018-05-21T04:11:07.233Z,2.90
2018-05-21T04:12:07.146Z,3.30
2018-05-21T04:13:07.039Z,3.10
2018-05-21T04:14:06.952Z,3.10
2018-05-21T04:15:06.845Z,3.30
2018-05-21T04:16:06.742Z,3.00
2018-05-21T04:17:06.663Z,3.20
2018-05-21T04:18:06.547Z,3.30
2018-05-21T04:19:06.445Z,3.00
2018-05-21T04:20:06.355Z,3.00
2018-05-21T04:21:06.251Z,2.90
2018-05-21T04:22:06.163Z,2.80
2018-05-21T04:23:06.057Z,3.10
2018-05-21T04:24:05.953Z,3.10
2018-05-21T04:25:05.866Z,2.70
2018-05-21T04:26:05.759Z,2.70
2018-05-21T04:27:05.667Z,3.20
2018-05-21T04:28:05.564Z,3.60
2018-05-21T04:29:05.461Z,3.10
2018-05-21T04:30:05.377Z,3.00
2018-05-21T04:31:05.267Z,2.80
2018-05-21T04:32:05.175Z,3.20
2018-05-21T04:33:05.074Z,2.90
2018-05-21T04:34:04.983Z,3.10
2018-05-21T04:35:04.879Z,2.90
2018-05-21T04:36:04.787Z,3.10
2018-05-21T04:37:04.984Z,3.20
2018-05-21T04:38:04.601Z,3.50
2018-05-21T04:39:04.493Z,2.90
2018-05-21T04:40:04.399Z,2.90
2018-05-21T04:41:04.327Z,3.20
2018-05-21T04:42:04.207Z,3.20
2018-05-21T04:43:04.103Z,3.10
2018-05-21T04:44:04.011Z,3.20
2018-05-21T04:45:03.922Z,3.20
2018-05-21T04:46:03.846Z,3.20
2018-05-21T04:47:03.726Z,3.30
2018-05-21T04:48:03.624Z,3.60
2018-05-21T04:49:03.533Z,3.50
2018-05-21T04:50:03.441Z,3.00
2018-05-21T04:51:03.340Z,3.10
2018-05-21T04:52:03.247Z,3.30
2018-05-21T04:53:03.156Z,3.50
2018-05-21T04:54:03.052Z,3.20
2018-05-21T04:55:02.963Z,3.40
2018-05-21T04:56:02.875Z,3.20
2018-05-21T04:57:02.769Z,3.40
2018-05-21T04:58:02.678Z,3.30
2018-05-21T04:59:02.586Z,3.30
2018-05-21T05:00:02.489Z,3.30
2018-05-21T05:01:02.395Z,3.10
2018-05-21T05:02:02.302Z,3.30
2018-05-21T05:03:02.211Z,3.10
2018-05-21T05:04:02.110Z,3.10
2018-05-21T05:05:02.016Z,3.40
2018-05-21T05:06:01.929Z,3.40
2018-05-21T05:07:02.084Z,3.60
2018-05-21T05:08:01.733Z,3.80
2018-05-21T05:09:01.642Z,3.70
2018-05-21T05:10:01.554Z,3.40
2018-05-21T05:11:01.461Z,3.80
2018-05-21T05:12:01.368Z,3.60
2018-05-21T05:13:01.267Z,3.70
2018-05-21T05:14:01.178Z,3.50
2018-05-21T05:15:01.083Z,3.50
2018-05-21T05:16:00.994Z,4.00
2018-05-21T05:17:00.902Z,3.70
2018-05-21T05:18:00.813Z,3.60
2018-05-21T05:19:00.720Z,3.60
2018-05-21T05:20:00.617Z,3.40
2018-05-21T05:21:00.615Z,3.60
2018-05-21T05:22:00.435Z,3.50
2018-05-21T05:23:00.345Z,3.90
2018-05-21T05:24:00.254Z,3.40
2018-05-21T05:25:00.164Z,3.60
2018-05-21T05:26:00.071Z,3.50
2018-05-21T05:26:59.983Z,3.80
2018-05-21T05:27:59.878Z,3.70
2018-05-21T05:28:59.787Z,3.80
2018-05-21T05:29:59.696Z,3.40
2018-05-21T05:30:59.605Z,3.60
2018-05-21T05:31:59.815Z,3.60
2018-05-21T05:32:59.423Z,3.60
2018-05-21T05:33:59.333Z,3.90
2018-05-21T05:34:59.242Z,4.10
2018-05-21T05:35:59.224Z,3.60
2018-05-21T05:36:59.049Z,3.90
2018-05-21T05:37:58.956Z,3.70
2018-05-21T05:38:58.867Z,3.80
2018-05-21T05:39:58.775Z,3.90
2018-05-21T05:40:58.685Z,3.60
2018-05-21T05:41:58.897Z,4.00
2018-05-21T05:42:58.505Z,3.80
2018-05-21T05:43:58.411Z,3.60
2018-05-21T05:44:58.322Z,3.90
2018-05-21T05:45:58.230Z,4.00
2018-05-21T05:46:58.141Z,3.20
2018-05-21T05:47:58.072Z,3.80
2018-05-21T05:48:57.965Z,4.10
2018-05-21T05:49:57.867Z,3.80
2018-05-21T05:50:57.777Z,3.80
2018-05-21T05:51:57.685Z,3.70
2018-05-21T05:52:57.595Z,3.60
2018-05-21T05:53:57.504Z,4.10
2018-05-21T05:54:57.414Z,4.00
2018-05-21T05:55:57.322Z,4.10
2018-05-21T05:56:57.232Z,3.70
2018-05-21T05:57:57.140Z,3.90
2018-05-21T05:58:57.054Z,4.10
2018-05-21T05:59:56.959Z,3.60
2018-05-21T06:00:56.868Z,3.50
2018-05-21T06:01:56.777Z,4.00
2018-05-21T06:02:56.687Z,3.80
2018-05-21T06:03:56.596Z,3.80
2018-05-21T06:04:56.506Z,4.00
2018-05-21T06:05:56.414Z,3.60
2018-05-21T06:06:56.325Z,4.00
2018-05-21T06:07:56.232Z,4.00
2018-05-21T06:08:56.142Z,3.80
2018-05-21T06:09:56.068Z,4.10
2018-05-21T06:10:55.961Z,4.20
2018-05-21T06:11:55.869Z,4.20
2018-05-21T06:12:55.778Z,3.80
2018-05-21T06:13:55.690Z,4.00
2018-05-21T06:14:55.610Z,3.90
2018-05-21T06:15:55.519Z,3.70
2018-05-21T06:16:55.427Z,4.00
2018-05-21T06:17:55.337Z,3.70
2018-05-21T06:18:55.246Z,4.10
2018-05-21T06:19:55.156Z,3.80
2018-05-21T06:20:55.065Z,3.80
2018-05-21T06:21:55.224Z,4.00
2018-05-21T06:22:54.884Z,3.80
2018-05-21T06:23:54.804Z,4.10
2018-05-21T06:24:54.715Z,4.00
2018-05-21T06:25:54.633Z,4.20
2018-05-21T06:26:54.533Z,4.10
2018-05-21T06:27:54.441Z,4.50
2018-05-21T06:28:54.351Z,3.80
2018-05-21T06:29:54.260Z,3.90
2018-05-21T06:30:54.180Z,3.90
2018-05-21T06:31:54.091Z,4.00
2018-05-21T06:32:54.000Z,3.70
2018-05-21T06:33:53.919Z,4.10
2018-05-21T06:34:53.817Z,3.90
2018-05-21T06:35:53.729Z,4.00
2018-05-21T06:36:53.649Z,3.90
2018-05-21T06:37:53.549Z,3.90
2018-05-21T06:38:53.468Z,3.80
2018-05-21T06:39:53.379Z,3.90
2018-05-21T06:40:53.286Z,3.80
2018-05-21T06:41:53.198Z,3.80
2018-05-21T06:42:53.117Z,3.80
2018-05-21T06:43:53.026Z,3.60
2018-05-21T06:44:52.936Z,4.00
2018-05-21T06:45:52.845Z,3.80
2018-05-21T06:46:52.753Z,4.20
2018-05-21T06:47:52.711Z,4.10
2018-05-21T06:48:52.585Z,3.90
2018-05-21T06:49:52.493Z,3.50
2018-05-21T06:50:52.405Z,3.90
2018-05-21T06:51:52.313Z,3.90
2018-05-21T06:52:52.222Z,3.90
2018-05-21T06:53:52.143Z,3.80
2018-05-21T06:54:52.052Z,3.80
2018-05-21T06:55:51.962Z,3.90
2018-05-21T06:56:51.871Z,3.90
2018-05-21T06:57:51.793Z,4.10
2018-05-21T06:58:51.702Z,3.60
2018-05-21T06:59:51.712Z,3.70
2018-05-21T07:00:51.520Z,3.60
2018-05-21T07:01:51.441Z,4.00
2018-05-21T07:02:51.351Z,3.30
2018-05-21T07:03:51.260Z,3.50
2018-05-21T07:04:51.169Z,3.70
2018-05-21T07:05:51.091Z,3.80
2018-05-21T07:06:50.999Z,3.70
2018-05-21T07:07:50.925Z,3.60
2018-05-21T07:08:50.819Z,3.50
2018-05-21T07:09:50.741Z,3.90
2018-05-21T07:10:50.657Z,3.70
2018-05-21T07:11:50.558Z,3.60
2018-05-21T07:12:50.470Z,3.50
2018-05-21T07:13:50.388Z,3.40
2018-05-21T07:14:50.299Z,3.50
2018-05-21T07:15:50.208Z,3.70
2018-05-21T07:16:50.116Z,3.70
2018-05-21T07:17:50.043Z,3.80
2018-05-21T07:18:49.947Z,3.60
2018-05-21T07:19:49.856Z,3.50
2018-05-21T07:20:49.778Z,3.40
2018-05-21T07:21:49.938Z,3.70
2018-05-21T07:22:49.597Z,3.60
2018-05-21T07:23:49.519Z,3.60
2018-05-21T07:24:49.427Z,3.70
2018-05-21T07:25:49.337Z,3.70
2018-05-21T07:26:49.259Z,3.40
2018-05-21T07:27:49.167Z,3.60
2018-05-21T07:28:49.077Z,3.00
2018-05-21T07:29:48.999Z,3.30
2018-05-21T07:30:48.909Z,4.00
2018-05-21T07:31:48.829Z,3.30
2018-05-21T07:32:48.738Z,3.00
2018-05-21T07:33:48.647Z,3.20
2018-05-21T07:34:48.569Z,3.20
2018-05-21T07:35:48.492Z,3.40
2018-05-21T07:36:48.389Z,3.40
2018-05-21T07:37:48.314Z,3.20
2018-05-21T07:38:48.235Z,3.10
2018-05-21T07:39:48.140Z,3.40
2018-05-21T07:40:48.049Z,3.20
2018-05-21T07:41:48.054Z,3.10
2018-05-21T07:42:47.885Z,3.10
2018-05-21T07:43:47.789Z,3.50
2018-05-21T07:44:47.737Z,3.00
2018-05-21T07:45:47.620Z,2.80
2018-05-21T07:46:47.542Z,2.90
2018-05-21T07:47:47.451Z,3.10
2018-05-21T07:48:47.361Z,3.00
2018-05-21T07:49:47.282Z,3.20
2018-05-21T07:50:47.205Z,2.80
2018-05-21T07:51:47.113Z,3.20
2018-05-21T07:52:47.023Z,3.10
2018-05-21T07:53:46.933Z,3.10
2018-05-21T07:54:46.859Z,3.10
2018-05-21T07:55:46.763Z,3.30
2018-05-21T07:56:46.934Z,3.00
2018-05-21T07:57:46.593Z,2.80
2018-05-21T07:58:46.514Z,2.80
2018-05-21T07:59:46.425Z,3.10
2018-05-21T08:00:46.336Z,2.40
2018-05-21T08:01:46.249Z,3.00
2018-05-21T08:02:46.165Z,2.50
2018-05-21T08:03:46.073Z,2.80
2018-05-21T08:04:45.998Z,2.80
2018-05-21T08:05:45.893Z,2.70
2018-05-21T08:06:45.813Z,2.80
2018-05-21T08:07:45.723Z,2.80
2018-05-21T08:08:45.631Z,2.80
2018-05-21T08:09:45.542Z,2.90
2018-05-21T08:10:45.450Z,2.70
2018-05-21T08:11:45.361Z,2.70
2018-05-21T08:12:45.280Z,2.80
2018-05-21T08:13:45.190Z,2.80
2018-05-21T08:14:45.199Z,2.70
2018-05-21T08:15:45.009Z,2.40
2018-05-21T08:16:44.918Z,2.40
2018-05-21T08:17:44.828Z,2.30
2018-05-21T08:18:44.738Z,2.80
2018-05-21T08:19:44.646Z,2.90
2018-05-21T08:20:44.556Z,2.70
2018-05-21T08:21:44.713Z,2.20
2018-05-21T08:22:44.373Z,2.20
2018-05-21T08:23:44.281Z,2.50
2018-05-21T08:24:44.192Z,2.00
2018-05-21T08:25:44.106Z,2.30
2018-05-21T08:26:44.014Z,2.40
2018-05-21T08:27:43.919Z,2.30
2018-05-21T08:28:43.828Z,2.50
2018-05-21T08:29:43.742Z,2.50
2018-05-21T08:30:43.648Z,2.70
2018-05-21T08:31:43.543Z,2.70
2018-05-21T08:32:43.453Z,2.70
2018-05-21T08:33:43.362Z,2.50
2018-05-21T08:34:43.272Z,2.20
2018-05-21T08:35:43.184Z,2.80
2018-05-21T08:36:43.093Z,2.30
2018-05-21T08:37:42.999Z,2.80
2018-05-21T08:38:42.909Z,2.70
2018-05-21T08:39:42.805Z,2.50
2018-05-21T08:40:42.713Z,2.50
2018-05-21T08:41:42.622Z,2.50
2018-05-21T08:42:42.609Z,2.50
2018-05-21T08:43:42.440Z,2.60
2018-05-21T08:44:42.351Z,2.70
2018-05-21T08:45:42.259Z,2.40
2018-05-21T08:46:42.169Z,2.40
2018-05-21T08:47:42.079Z,2.50
2018-05-21T08:48:42.007Z,2.30
2018-05-21T08:49:41.896Z,2.60
2018-05-21T08:50:41.808Z,2.70
2018-05-21T08:51:41.715Z,2.30
2018-05-21T08:52:41.624Z,2.20
2018-05-21T08:53:41.533Z,2.60
2018-05-21T08:54:41.454Z,2.20
2018-05-21T08:55:41.365Z,2.40
2018-05-21T08:56:41.394Z,2.80
2018-05-21T08:57:41.182Z,2.60
2018-05-21T08:58:41.094Z,2.60
2018-05-21T08:59:41.012Z,2.80
2018-05-21T09:00:40.922Z,2.90
2018-05-21T09:01:40.830Z,2.70
2018-05-21T09:02:40.752Z,2.60
2018-05-21T09:03:40.665Z,2.80
2018-05-21T09:04:40.584Z,3.00
2018-05-21T09:05:40.481Z,3.00
2018-05-21T09:06:40.403Z,2.70
2018-05-21T09:07:40.313Z,2.90
2018-05-21T09:08:40.220Z,2.90
2018-05-21T09:09:40.143Z,2.90
2018-05-21T09:10:40.050Z,2.60
2018-05-21T09:11:39.972Z,3.00
2018-05-21T09:12:39.882Z,3.00
2018-05-21T09:13:39.790Z,3.00
2018-05-21T09:14:39.713Z,2.90
2018-05-21T09:15:39.623Z,2.80
2018-05-21T09:16:39.641Z,2.50
2018-05-21T09:17:39.454Z,2.70
2018-05-21T09:18:39.374Z,3.10
2018-05-21T09:19:39.290Z,3.10
2018-05-21T09:20:39.193Z,3.20
2018-05-21T09:21:39.121Z,2.70
2018-05-21T09:22:39.117Z,3.10
2018-05-21T09:23:38.946Z,2.70
2018-05-21T09:24:38.858Z,2.90
2018-05-21T09:25:38.765Z,2.70
2018-05-21T09:26:38.686Z,2.70
2018-05-21T09:27:38.595Z,2.80
2018-05-21T09:28:38.518Z,2.10
2018-05-21T09:29:38.427Z,2.60
2018-05-21T09:30:38.349Z,2.80
2018-05-21T09:31:38.256Z,2.50
2018-05-21T09:32:38.175Z,2.20
2018-05-21T09:33:38.090Z,3.30
2018-05-21T09:34:38.005Z,2.90
2018-05-21T09:35:37.918Z,2.90
2018-05-21T09:36:37.828Z,3.10
2018-05-21T09:37:37.750Z,3.20
2018-05-21T09:38:37.661Z,2.90
2018-05-21T09:39:37.569Z,3.20
2018-05-21T09:40:37.490Z,3.00
2018-05-21T09:41:37.399Z,2.70
2018-05-21T09:42:37.320Z,3.20
2018-05-21T09:43:37.231Z,3.00
2018-05-21T09:44:37.152Z,3.00
2018-05-21T09:45:37.060Z,3.10
2018-05-21T09:46:36.981Z,3.40
2018-05-21T09:47:36.893Z,3.20
2018-05-21T09:48:36.838Z,3.20
2018-05-21T09:49:36.723Z,2.90
2018-05-21T09:50:36.646Z,3.00
2018-05-21T09:51:36.553Z,3.30
2018-05-21T09:52:36.475Z,3.10
2018-05-21T09:53:36.386Z,3.00
2018-05-21T09:54:36.353Z,3.00
2018-05-21T09:55:36.227Z,3.40
2018-05-21T09:56:36.141Z,3.00
2018-05-21T09:57:36.059Z,3.30
2018-05-21T09:58:35.967Z,3.20
2018-05-21T09:59:35.889Z,3.10
2018-05-21T10:00:35.799Z,3.60
2018-05-21T10:01:35.721Z,2.30
2018-05-21T10:02:35.630Z,3.00
2018-05-21T10:03:35.551Z,2.60
2018-05-21T10:04:35.465Z,2.50
2018-05-21T10:05:35.383Z,3.30
2018-05-21T10:06:35.304Z,3.30
2018-05-21T10:07:35.212Z,3.00
2018-05-21T10:08:35.134Z,3.30
2018-05-21T10:09:35.044Z,2.50
2018-05-21T10:10:34.967Z,3.40
2018-05-21T10:11:34.874Z,3.30
2018-05-21T10:12:34.796Z,3.50
2018-05-21T10:13:34.705Z,3.10
2018-05-21T10:14:34.631Z,3.60
2018-05-21T10:15:34.537Z,3.30
2018-05-21T10:16:34.457Z,3.40
2018-05-21T10:17:34.379Z,3.30
2018-05-21T10:18:34.290Z,3.00
2018-05-21T10:19:34.215Z,3.30
2018-05-21T10:20:34.119Z,3.10
2018-05-21T10:21:34.041Z,3.30
2018-05-21T10:22:33.963Z,2.70
2018-05-21T10:23:33.873Z,2.80
2018-05-21T10:24:33.797Z,3.10
2018-05-21T10:25:33.716Z,3.10
2018-05-21T10:26:33.626Z,3.30
2018-05-21T10:27:33.551Z,3.30
2018-05-21T10:28:33.467Z,3.40
2018-05-21T10:29:33.380Z,3.50
2018-05-21T10:30:33.299Z,3.70
2018-05-21T10:31:33.222Z,3.60
2018-05-21T10:32:33.142Z,3.20
2018-05-21T10:33:33.064Z,3.40
2018-05-21T10:34:32.973Z,3.00
2018-05-21T10:35:32.899Z,3.30
2018-05-21T10:36:32.818Z,3.20
2018-05-21T10:37:32.738Z,3.20
2018-05-21T10:38:32.659Z,3.20
2018-05-21T10:39:32.569Z,3.40
2018-05-21T10:40:32.492Z,3.40
2018-05-21T10:41:32.413Z,3.60
2018-05-21T10:42:32.324Z,3.10
2018-05-21T10:43:32.257Z,3.30
2018-05-21T10:44:32.165Z,3.30
2018-05-21T10:45:32.091Z,3.70
2018-05-21T10:46:32.000Z,3.40
2018-05-21T10:47:31.919Z,3.70
2018-05-21T10:48:31.840Z,3.30
2018-05-21T10:49:31.761Z,3.00
2018-05-21T10:50:31.671Z,3.40
2018-05-21T10:51:31.599Z,3.10
2018-05-21T10:52:31.522Z,3.50
2018-05-21T10:53:31.435Z,3.00
2018-05-21T10:54:31.345Z,3.20
2018-05-21T10:55:31.267Z,3.30
2018-05-21T10:56:31.188Z,3.50
2018-05-21T10:57:31.199Z,3.40
2018-05-21T10:58:31.033Z,3.60
2018-05-21T10:59:30.941Z,3.60
2018-05-21T11:00:30.861Z,3.60
2018-05-21T11:01:30.783Z,3.50
2018-05-21T11:02:30.706Z,3.70
2018-05-21T11:03:30.615Z,3.40
2018-05-21T11:04:30.583Z,3.40
2018-05-21T11:05:30.460Z,3.50
2018-05-21T11:06:30.381Z,3.50
2018-05-21T11:07:30.292Z,3.60
2018-05-21T11:08:30.210Z,3.10
2018-05-21T11:09:30.145Z,3.10
2018-05-21T11:10:30.053Z,3.20
2018-05-21T11:11:29.964Z,3.30
2018-05-21T11:12:29.886Z,3.40
2018-05-21T11:13:29.807Z,3.50
2018-05-21T11:14:29.729Z,3.10
2018-05-21T11:15:29.639Z,3.20
2018-05-21T11:16:29.559Z,3.80
2018-05-21T11:17:29.480Z,3.00
2018-05-21T11:18:29.390Z,3.50
2018-05-21T11:19:29.312Z,3.50
2018-05-21T11:20:29.234Z,3.20
2018-05-21T11:21:29.142Z,3.20
2018-05-21T11:22:29.064Z,3.20
2018-05-21T11:23:28.986Z,3.30
2018-05-21T11:24:28.896Z,3.50
2018-05-21T11:25:28.819Z,3.30
2018-05-21T11:26:28.727Z,2.90
2018-05-21T11:27:28.648Z,2.80
2018-05-21T11:28:28.571Z,3.30
2018-05-21T11:29:28.480Z,3.20
2018-05-21T11:30:28.400Z,2.90
2018-05-21T11:31:28.309Z,3.00
2018-05-21T11:32:28.231Z,2.80
2018-05-21T11:33:28.140Z,3.30
2018-05-21T11:34:28.049Z,3.00
2018-05-21T11:35:27.971Z,2.80
2018-05-21T11:36:27.881Z,3.00
2018-05-21T11:37:27.807Z,2.70
2018-05-21T11:38:27.711Z,3.10
2018-05-21T11:39:27.628Z,3.10
2018-05-21T11:40:27.530Z,2.90
2018-05-21T11:41:27.450Z,3.00
2018-05-21T11:42:27.363Z,2.80
2018-05-21T11:43:27.271Z,2.90
2018-05-21T11:44:27.190Z,2.50
2018-05-21T11:45:27.101Z,3.00
2018-05-21T11:46:27.036Z,2.90
2018-05-21T11:47:26.920Z,3.00
2018-05-21T11:48:26.841Z,2.70
2018-05-21T11:49:26.749Z,2.50
2018-05-21T11:50:26.660Z,2.30
2018-05-21T11:51:26.868Z,2.50
2018-05-21T11:52:26.481Z,2.90
2018-05-21T11:53:26.399Z,2.70
2018-05-21T11:54:26.308Z,2.90
2018-05-21T11:55:26.218Z,2.50
2018-05-21T11:56:26.126Z,2.70
2018-05-21T11:57:26.036Z,2.60
2018-05-21T11:58:25.961Z,2.60
2018-05-21T11:59:25.866Z,2.80
2018-05-21T12:00:25.776Z,2.40
2018-05-21T12:01:25.685Z,2.90
2018-05-21T12:02:25.596Z,2.40
2018-05-21T12:03:25.516Z,2.90
2018-05-21T12:04:25.451Z,2.80
2018-05-21T12:05:25.336Z,2.90
2018-05-21T12:06:25.256Z,3.00
2018-05-21T12:07:25.165Z,2.80
2018-05-21T12:08:25.076Z,2.60
2018-05-21T12:09:24.999Z,2.60
2018-05-21T12:10:24.907Z,2.70
2018-05-21T12:11:24.814Z,2.50
2018-05-21T12:12:24.736Z,2.40
2018-05-21T12:13:24.647Z,2.80
2018-05-21T12:14:24.567Z,2.80
2018-05-21T12:15:24.476Z,2.60
2018-05-21T12:16:24.384Z,2.50
2018-05-21T12:17:24.309Z,2.70
2018-05-21T12:18:24.217Z,2.60
2018-05-21T12:19:24.128Z,2.70
2018-05-21T12:20:24.047Z,2.50
2018-05-21T12:21:23.958Z,2.70
2018-05-21T12:22:23.887Z,2.60
2018-05-21T12:23:23.787Z,2.80
2018-05-21T12:24:23.696Z,2.50
2018-05-21T12:25:23.608Z,2.50
2018-05-21T12:26:23.540Z,2.80
2018-05-21T12:27:23.436Z,2.60
2018-05-21T12:28:23.344Z,2.50
2018-05-21T12:29:23.279Z,2.40
2018-05-21T12:30:23.178Z,2.60
2018-05-21T12:31:23.084Z,2.40
2018-05-21T12:32:22.996Z,2.60
2018-05-21T12:33:22.904Z,2.80
2018-05-21T12:34:22.825Z,2.30
2018-05-21T12:35:22.735Z,2.20
2018-05-21T12:36:22.644Z,2.70
2018-05-21T12:37:22.554Z,2.10
2018-05-21T12:38:22.466Z,1.90
2018-05-21T12:39:22.387Z,1.90
2018-05-21T12:40:22.293Z,2.70
2018-05-21T12:41:22.202Z,2.70
2018-05-21T12:42:22.117Z,2.20
2018-05-21T12:43:22.021Z,2.60
2018-05-21T12:44:21.931Z,2.50
2018-05-21T12:45:21.852Z,2.70
2018-05-21T12:46:21.761Z,2.50
2018-05-21T12:47:21.670Z,2.80
2018-05-21T12:48:21.578Z,2.70
2018-05-21T12:49:21.491Z,2.40
2018-05-21T12:50:21.397Z,2.90
2018-05-21T12:51:21.309Z,2.50
2018-05-21T12:52:21.217Z,2.20
2018-05-21T12:53:21.137Z,2.50
2018-05-21T12:54:21.047Z,2.50
2018-05-21T12:55:20.958Z,2.50
2018-05-21T12:56:20.866Z,2.20
2018-05-21T12:57:20.773Z,2.30
2018-05-21T12:58:20.684Z,2.30
2018-05-21T12:59:20.592Z,2.40
2018-05-21T13:00:20.502Z,2.40
2018-05-21T13:01:20.442Z,2.60
2018-05-21T13:02:20.332Z,3.00
2018-05-21T13:03:20.248Z,2.50
2018-05-21T13:04:20.150Z,2.50
2018-05-21T13:05:20.129Z,2.30
2018-05-21T13:06:19.969Z,2.80
2018-05-21T13:07:19.879Z,2.40
2018-05-21T13:08:19.788Z,2.30
2018-05-21T13:09:19.696Z,2.40
2018-05-21T13:10:19.607Z,2.60
2018-05-21T13:11:19.516Z,2.70
2018-05-21T13:12:19.436Z,2.30
2018-05-21T13:13:19.334Z,2.50
2018-05-21T13:14:19.242Z,2.50
2018-05-21T13:15:19.213Z,2.50
2018-05-21T13:16:19.073Z,2.20
2018-05-21T13:17:18.974Z,2.30